Time;durP1;ratioP1;P1;durP2;ratioP2;P2;SDS_P1;SDS_P2;PMS_P1;PMS_P2;Temp;Humidity;BMP_temperature;BMP_pressure;BME280_temperature;BME280_humidity;BME280_pressure;Samples;Min_cycle;Max_cycle;Signal;HPM_P1;HPM_P2
2022/09/09 00:00:25;;;;;;;0.70;0.70;;;16.60;98.70;;;;;;6211470;23;20001;-79
2022/09/09 00:03:02;;;;;;;0.68;0.65;;;16.70;99.90;;;;;;6211751;23;20016;-78
2022/09/09 00:05:28;;;;;;;1.17;0.85;;;;;;;;;;6211278;23;20005;-78
2022/09/09 00:07:57;;;;;;;2.15;0.80;;;16.50;99.20;;;;;;6184707;23;20015;-78
2022/09/09 00:10:23;;;;;;;0.60;0.60;;;;;;;;;;6211007;23;20001;-79
2022/09/09 00:13:11;;;;;;;9.27;1.13;;;16.60;98.90;;;;;;6211616;23;20004;-79
2022/09/09 00:15:37;;;;;;;1.58;0.82;;;;;;;;;;6212028;23;20021;-79
2022/09/09 00:18:09;;;;;;;0.65;0.65;;;16.60;98.50;;;;;;6213462;23;20011;-78
2022/09/09 00:20:41;;;;;;;1.52;1.42;;;16.70;99.00;;;;;;6213110;23;20008;-79
2022/09/09 00:23:16;;;;;;;0.98;0.98;;;16.70;99.50;;;;;;6213452;23;20435;-77
2022/09/09 00:25:59;;;;;;;1.55;0.90;;;16.40;98.20;;;;;;6213439;23;20347;-79
2022/09/09 00:28:26;;;;;;;1.08;0.70;;;17.00;99.90;;;;;;6213133;23;20464;-78
2022/09/09 00:30:52;;;;;;;;;;;16.80;97.70;;;;;;6211730;23;20004;-79
2022/09/09 00:33:22;;;;;;;3.33;0.90;;;16.60;98.00;;;;;;6213538;23;19907;-79
2022/09/09 00:35:59;;;;;;;1.15;0.90;;;16.50;98.50;;;;;;6213235;23;20086;-79
2022/09/09 00:38:28;;;;;;;1.48;0.90;;;16.50;99.90;;;;;;6213344;23;20448;-79
2022/09/09 00:41:03;;;;;;;1.05;0.75;;;16.30;98.80;;;;;;6213227;23;20043;-79
2022/09/09 00:43:36;;;;;;;1.40;0.90;;;16.20;99.90;;;;;;6186419;23;20067;-78
2022/09/09 00:46:32;;;;;;;1.15;0.98;;;16.30;99.90;;;;;;6212779;23;20044;-78
2022/09/09 00:49:11;;;;;;;1.00;0.97;;;16.10;99.90;;;;;;6212790;23;20390;-78
2022/09/09 00:52:04;;;;;;;4.32;0.80;;;16.40;99.90;;;;;;6212975;23;20008;-77
2022/09/09 00:54:54;;;;;;;1.35;0.85;;;16.10;98.50;;;;;;6213160;23;20005;-78
2022/09/09 00:57:20;;;;;;;1.33;0.70;;;;;;;;;;6212625;23;20036;-79
2022/09/09 00:59:52;;;;;;;5.22;0.98;;;16.00;99.90;;;;;;6212432;23;20059;-78
2022/09/09 01:02:40;;;;;;;0.70;0.70;;;16.50;99.90;;;;;;6211424;23;20490;-78
2022/09/09 01:05:37;;;;;;;2.67;1.00;;;16.20;98.30;;;;;;6212656;23;20015;-78
2022/09/09 01:08:09;;;;;;;1.30;0.80;;;16.20;99.90;;;;;;6212973;23;20344;-78
2022/09/09 01:10:53;;;;;;;4.13;1.38;;;16.30;99.90;;;;;;6212844;23;20011;-78
2022/09/09 01:13:35;;;;;;;4.30;0.80;;;16.10;98.10;;;;;;6212925;23;20335;-79
2022/09/09 01:16:03;;;;;;;1.60;1.02;;;16.00;99.90;;;;;;6211949;23;20009;-78
2022/09/09 01:18:34;;;;;;;1.25;0.88;;;16.10;98.40;;;;;;6212577;23;20007;-78
2022/09/09 01:21:30;;;;;;;3.05;0.80;;;15.80;99.90;;;;;;6212760;23;20088;-78
2022/09/09 01:24:08;;;;;;;1.15;1.05;;;15.90;99.90;;;;;;6212593;23;20008;-78
2022/09/09 01:26:37;;;;;;;0.55;0.55;;;16.10;98.60;;;;;;6212594;23;20005;-78
2022/09/09 01:29:12;;;;;;;1.23;0.90;;;15.90;98.30;;;;;;6213056;23;20088;-78
2022/09/09 01:31:51;;;;;;;1.60;0.88;;;15.90;98.20;;;;;;6212972;23;20004;-77
2022/09/09 01:34:17;;;;;;;0.85;0.73;;;;;;;;;;6212607;23;20004;-78
2022/09/09 01:37:02;;;;;;;1.38;0.90;;;16.30;99.90;;;;;;6212889;23;20015;-78
2022/09/09 01:39:28;;;;;;;1.30;0.68;;;;;;;;;;6212757;23;20013;-78
2022/09/09 01:41:55;;;;;;;0.80;0.80;;;15.70;99.10;;;;;;6212683;23;20062;-78
2022/09/09 01:44:21;;;;;;;0.70;0.70;;;;;;;;;;6212512;23;20004;-78
2022/09/09 01:46:47;;;;;;;0.65;0.65;;;;;;;;;;6212695;23;20001;-78
2022/09/09 01:49:13;;;;;;;1.20;1.10;;;;;;;;;;6212553;23;20426;-78
2022/09/09 01:51:41;;;;;;;3.05;0.90;;;15.70;98.70;;;;;;6213064;23;20008;-78
2022/09/09 01:54:07;;;;;;;0.95;0.95;;;;;;;;;;6212778;23;20005;-78
2022/09/09 01:56:52;;;;;;;2.33;1.20;;;15.70;99.90;;;;;;6212248;23;20445;-79
2022/09/09 01:59:18;;;;;;;3.92;1.20;;;;;;;;;;6212313;23;20028;-78
2022/09/09 02:01:52;;;;;;;0.60;0.60;;;15.40;98.90;;;;;;6211824;23;20337;-79
2022/09/09 02:04:41;;;;;;;1.67;1.05;;;15.40;99.30;;;;;;6212314;23;20066;-79
2022/09/09 02:07:33;;;;;;;0.68;0.68;;;15.20;99.90;;;;;;6212369;23;20004;-78
2022/09/09 02:10:16;;;;;;;2.20;0.77;;;15.30;99.90;;;;;;6212347;23;20459;-79
2022/09/09 02:12:50;;;;;;;1.38;0.80;;;15.20;99.10;;;;;;6212061;23;20008;-79
2022/09/09 02:15:22;;;;;;;1.08;1.00;;;15.10;99.30;;;;;;6210109;23;20080;-78
2022/09/09 02:17:51;;;;;;;1.35;1.13;;;15.00;99.50;;;;;;6212111;23;20004;-78
2022/09/09 02:20:19;;;;;;;1.10;1.00;;;14.90;99.70;;;;;;6212137;23;20076;-78
2022/09/09 02:22:46;;;;;;;;;;;15.00;99.90;;;;;;6212749;23;20007;-78
2022/09/09 02:25:17;;;;;;;1.48;1.08;;;14.70;99.90;;;;;;6212202;23;19904;-78
2022/09/09 02:27:45;;;;;;;2.78;1.23;;;14.70;99.90;;;;;;6212378;23;19997;-78
2022/09/09 02:30:12;;;;;;;2.85;0.73;;;14.40;99.90;;;;;;6212111;23;20412;-78
2022/09/09 02:32:39;;;;;;;6.38;0.95;;;14.50;99.90;;;;;;6211985;23;20072;-78
2022/09/09 02:35:15;;;;;;;1.52;1.00;;;14.90;99.90;;;;;;6211768;23;20088;-78
2022/09/09 02:37:42;;;;;;;1.60;1.00;;;14.80;99.90;;;;;;6211594;23;20008;-78
2022/09/09 02:40:10;;;;;;;1.20;1.00;;;14.70;99.90;;;;;;6211745;23;20447;-78
2022/09/09 02:42:41;;;;;;;1.52;1.05;;;14.90;99.90;;;;;;6212038;23;20448;-78
2022/09/09 02:45:08;;;;;;;4.10;0.90;;;15.10;99.90;;;;;;6184654;23;20017;-78
2022/09/09 02:47:44;;;;;;;5.88;1.58;;;15.00;99.90;;;;;;6212110;23;20096;-78
2022/09/09 02:50:10;;;;;;;1.63;1.05;;;;;;;;;;6211850;23;20075;-78
2022/09/09 02:52:59;;;;;;;3.13;0.90;;;15.00;99.90;;;;;;6211626;23;20527;-78
2022/09/09 02:55:25;;;;;;;2.47;1.10;;;;;;;;;;6211985;23;20071;-78
2022/09/09 02:57:52;;;;;;;1.90;1.02;;;15.00;99.90;;;;;;6211928;23;20032;-78
2022/09/09 03:00:24;;;;;;;2.40;1.35;;;15.10;99.90;;;;;;6212002;23;20009;-78
2022/09/09 03:02:51;;;;;;;1.83;1.20;;;;;;;;;;6212018;23;20004;-78
2022/09/09 03:05:17;;;;;;;1.70;1.00;;;14.60;99.70;;;;;;6211696;23;20001;-78
2022/09/09 03:07:43;;;;;;;0.90;0.90;;;;;;;;;;6211612;23;20000;-78
2022/09/09 03:10:10;;;;;;;1.33;1.00;;;;;;;;;;6185137;23;20001;-77
2022/09/09 03:12:36;;;;;;;2.30;0.98;;;14.70;99.90;;;;;;6211801;23;20055;-78
2022/09/09 03:15:02;;;;;;;1.27;0.90;;;;;;;;;;6211547;23;20012;-78
2022/09/09 03:17:28;;;;;;;1.27;1.10;;;;;;;;;;6211405;23;20017;-77
2022/09/09 03:19:54;;;;;;;1.15;0.90;;;;;;;;;;6212004;23;20008;-78
2022/09/09 03:22:21;;;;;;;1.77;1.05;;;;;;;;;;6211689;23;20459;-78
2022/09/09 03:24:47;;;;;;;1.77;1.20;;;;;;;;;;6211598;23;20013;-78
2022/09/09 03:27:14;;;;;;;1.52;1.02;;;;;;;;;;6211425;23;20024;-78
2022/09/09 03:29:40;;;;;;;0.90;0.88;;;14.50;99.90;;;;;;6211959;23;20001;-77
2022/09/09 03:32:06;;;;;;;1.38;1.00;;;;;;;;;;6211826;23;20074;-78
2022/09/09 03:34:32;;;;;;;1.30;0.90;;;;;;;;;;6211998;23;20383;-77
2022/09/09 03:36:58;;;;;;;1.23;1.13;;;;;;;;;;6211575;23;20388;-77
2022/09/09 03:39:24;;;;;;;0.95;0.88;;;;;;;;;;6211331;23;20467;-77
2022/09/09 03:41:50;;;;;;;1.95;1.15;;;;;;;;;;6211153;23;20008;-77
2022/09/09 03:44:16;;;;;;;1.20;1.10;;;;;;;;;;6211181;23;20000;-77
2022/09/09 03:46:42;;;;;;;1.00;0.90;;;;;;;;;;6211285;23;20009;-78
2022/09/09 03:49:08;;;;;;;0.82;0.82;;;;;;;;;;6212139;23;20005;-78
2022/09/09 03:51:36;;;;;;;6.13;1.20;;;;;;;;;;6213661;23;20005;-78
2022/09/09 03:54:04;;;;;;;1.10;0.95;;;;;;;;;;6213657;23;20243;-78
2022/09/09 03:56:31;;;;;;;2.55;1.10;;;;;;;;;;6213640;23;20009;-78
2022/09/09 03:58:57;;;;;;;1.50;1.03;;;14.10;99.90;;;;;;6213523;23;20348;-78
2022/09/09 04:01:23;;;;;;;1.30;1.20;;;14.00;99.90;;;;;;6213841;23;20008;-77
2022/09/09 04:03:50;;;;;;;2.88;1.23;;;;;;;;;;6213572;23;20005;-78
2022/09/09 04:06:17;;;;;;;4.43;0.93;;;;;;;;;;6208785;23;20008;-74
2022/09/09 04:08:43;;;;;;;;;;;14.20;99.90;;;;;;6210383;23;20008;-74
2022/09/09 04:11:09;;;;;;;1.08;0.82;;;;;;;;;;6211778;23;19900;-73
2022/09/09 04:13:40;;;;;;;2.67;1.13;;;14.00;99.90;;;;;;6211194;23;20004;-74
2022/09/09 04:16:06;;;;;;;1.23;1.13;;;;;;;;;;6211229;23;20024;-72
2022/09/09 04:18:32;;;;;;;1.05;0.95;;;;;;;;;;6211201;23;20035;-72
2022/09/09 04:20:58;;;;;;;1.05;1.02;;;13.70;99.90;;;;;;6210999;23;20027;-72
2022/09/09 04:23:27;;;;;;;0.93;0.90;;;13.90;99.90;;;;;;6211419;23;20036;-73
2022/09/09 04:25:54;;;;;;;1.52;0.80;;;13.90;99.90;;;;;;6211872;23;20005;-73
2022/09/09 04:28:22;;;;;;;1.90;1.00;;;14.10;99.90;;;;;;6211002;23;20079;-73
2022/09/09 04:30:48;;;;;;;2.47;1.17;;;;;;;;;;6211722;23;20001;-75
2022/09/09 04:33:14;;;;;;;1.23;1.13;;;;;;;;;;6211540;23;20032;-75
2022/09/09 04:35:46;;;;;;;1.35;1.05;;;13.80;99.90;;;;;;6210698;23;20364;-75
2022/09/09 04:38:12;;;;;;;0.95;0.90;;;;;;;;;;6211223;23;20471;-75
2022/09/09 04:40:42;;;;;;;0.75;0.75;;;;;;;;;;6211123;23;19996;-75
2022/09/09 04:43:08;;;;;;;3.63;1.15;;;;;;;;;;6211282;23;20011;-75
2022/09/09 04:45:34;;;;;;;2.42;1.05;;;;;;;;;;6184090;23;20035;-74
2022/09/09 04:48:00;;;;;;;2.42;1.27;;;;;;;;;;6211340;23;20001;-75
2022/09/09 04:50:26;;;;;;;0.98;0.93;;;;;;;;;;6211145;23;20079;-75
2022/09/09 04:52:52;;;;;;;1.05;0.95;;;;;;;;;;6211375;23;20020;-75
2022/09/09 04:55:18;;;;;;;3.00;1.10;;;;;;;;;;6210596;23;19997;-75
2022/09/09 04:57:44;;;;;;;3.58;1.20;;;;;;;;;;6211074;23;20035;-75
2022/09/09 05:00:10;;;;;;;1.77;1.65;;;;;;;;;;6211532;23;20020;-74
2022/09/09 05:02:39;;;;;;;6.20;1.25;;;;;;;;;;6210743;23;20000;-75
2022/09/09 05:05:06;;;;;;;1.80;1.23;;;;;;;;;;6210513;23;20430;-76
2022/09/09 05:07:32;;;;;;;4.45;2.60;;;;;;;;;;6211226;23;20371;-74
2022/09/09 05:09:58;;;;;;;8.15;3.08;;;;;;;;;;6210718;23;20007;-75
2022/09/09 05:12:25;;;;;;;2.00;1.70;;;;;;;;;;6210655;23;20075;-75
2022/09/09 05:14:51;;;;;;;2.85;2.50;;;;;;;;;;6209843;23;20027;-75
2022/09/09 05:17:17;;;;;;;4.18;3.10;;;;;;;;;;6210706;23;20107;-75
2022/09/09 05:19:43;;;;;;;3.97;2.85;;;14.10;99.90;;;;;;6211130;23;20031;-75
2022/09/09 05:22:11;;;;;;;1.90;1.50;;;;;;;;;;6211214;23;20005;-76
2022/09/09 05:24:37;;;;;;;2.75;2.13;;;;;;;;;;6210580;23;20352;-75
2022/09/09 05:27:05;;;;;;;2.60;1.75;;;14.10;99.90;;;;;;6210454;23;20016;-76
2022/09/09 05:29:33;;;;;;;2.30;1.70;;;;;;;;;;6210773;23;20009;-74
2022/09/09 05:31:59;;;;;;;2.85;1.52;;;;;;;;;;6209809;23;20039;-75
2022/09/09 05:34:25;;;;;;;1.92;1.70;;;;;;;;;;6209811;23;20340;-75
2022/09/09 05:36:52;;;;;;;3.05;2.03;;;;;;;;;;6210827;23;20000;-74
2022/09/09 05:39:18;;;;;;;3.33;2.17;;;;;;;;;;6210421;23;20008;-76
2022/09/09 05:41:45;;;;;;;2.40;1.60;;;;;;;;;;6210631;23;20041;-76
2022/09/09 05:44:11;;;;;;;;;;;13.90;99.90;;;;;;6211398;23;20515;-80
2022/09/09 05:46:37;;;;;;;3.58;1.63;;;;;;;;;;6209720;23;19987;-81
2022/09/09 05:49:05;;;;;;;1.90;1.73;;;;;;;;;;6209716;23;20454;-80
2022/09/09 05:51:30;;;;;;;;;;;14.30;99.90;;;;;;6209612;23;20009;-80
2022/09/09 05:54:00;;;;;;;2.67;1.88;;;;;;;;;;6214280;23;19903;-81
2022/09/09 05:56:27;;;;;;;3.25;1.88;;;14.30;99.90;;;;;;6213479;23;20004;-81
2022/09/09 05:58:54;;;;;;;;;;;14.70;99.90;;;;;;6213674;23;20035;-82
2022/09/09 06:01:20;;;;;;;5.38;2.53;;;15.00;99.90;;;;;;6214432;23;20449;-81
2022/09/09 06:03:47;;;;;;;4.83;2.30;;;15.70;99.80;;;;;;6214161;23;20003;-82
2022/09/09 06:06:17;;;;;;;2.53;1.90;;;18.90;98.00;;;;;;6213872;23;20232;-81
2022/09/09 06:08:44;;;;;;;8.52;2.22;;;22.70;85.60;;;;;;6215197;23;20011;-81
2022/09/09 06:11:15;;;;;;;5.15;2.13;;;26.10;70.20;;;;;;6215756;23;20043;-82
2022/09/09 06:13:41;;;;;;;2.08;1.58;;;;;;;;;;6216542;23;20015;-82
2022/09/09 06:16:11;;;;;;;1.83;1.10;;;25.60;69.30;;;;;;6214972;23;20027;-82
2022/09/09 06:18:41;;;;;;;5.93;1.35;;;24.20;74.30;;;;;;6216474;23;20011;-81
2022/09/09 06:21:23;;;;;;;3.28;1.08;;;25.90;68.80;;;;;;6216910;23;20044;-81
2022/09/09 06:23:51;;;;;;;1.35;1.13;;;;;;;;;;6213960;23;20448;-84
2022/09/09 06:26:19;;;;;;;1.30;1.20;;;31.90;53.80;;;;;;6215255;23;20005;-85
2022/09/09 06:28:50;;;;;;;1.80;1.17;;;34.00;58.10;;;;;;6205232;23;20000;-84
2022/09/09 06:31:21;;;;;;;0.73;0.65;;;36.60;45.70;;;;;;6213340;23;20078;-82
2022/09/09 06:33:47;;;;;;;1.90;0.93;;;38.30;42.50;;;;;;6183397;23;20011;-81
2022/09/09 06:36:16;;;;;;;1.60;1.17;;;40.10;40.40;;;;;;6213883;23;20004;-82
2022/09/09 06:38:42;;;;;;;6.50;1.20;;;41.70;45.80;;;;;;6210891;23;20004;-81
2022/09/09 06:41:09;;;;;;;1.92;1.00;;;42.90;37.00;;;;;;6215904;23;20001;-77
2022/09/09 06:43:35;;;;;;;3.35;0.85;;;;;;;;;;6208333;23;20388;-78
2022/09/09 06:46:09;;;;;;;1.20;0.68;;;44.60;35.90;;;;;;6202551;23;20034;-77
2022/09/09 06:48:35;;;;;;;0.38;0.30;;;;;;;;;;6202734;23;20500;-77
2022/09/09 06:51:13;;;;;;;3.70;0.60;;;45.80;38.60;;;;;;6206883;23;20071;-74
2022/09/09 06:53:41;;;;;;;1.33;0.40;;;45.50;37.40;;;;;;6206393;23;20435;-80
2022/09/09 06:56:23;;;;;;;1.08;0.35;;;46.60;33.20;;;;;;6208621;23;20076;-80
2022/09/09 06:58:55;;;;;;;5.43;0.68;;;47.50;29.50;;;;;;6177759;23;20015;-80
2022/09/09 07:01:26;;;;;;;4.95;0.45;;;48.70;28.30;;;;;;6209166;23;20040;-81
2022/09/09 07:03:54;;;;;;;1.58;1.10;;;48.60;28.30;;;;;;6207566;23;20004;-80
2022/09/09 07:06:31;;;;;;;4.45;0.50;;;49.50;25.80;;;;;;6206655;23;20012;-79
2022/09/09 07:09:00;;;;;;;2.50;0.47;;;49.30;27.40;;;;;;6203725;23;20043;-80
2022/09/09 07:11:30;;;;;;;3.10;2.55;;;49.20;26.70;;;;;;6205922;23;20043;-80
2022/09/09 07:14:00;;;;;;;2.13;0.50;;;;;;;;;;6207875;23;20520;-79
2022/09/09 07:16:31;;;;;;;1.33;0.50;;;;;;;;;;6208544;23;20017;-80
2022/09/09 07:18:57;;;;;;;3.75;0.40;;;;;;;;;;6201962;23;20001;-80
2022/09/09 07:21:28;;;;;;;1.65;0.52;;;51.00;26.00;;;;;;6206561;23;20008;-80
2022/09/09 07:23:55;;;;;;;0.82;0.40;;;;;;;;;;6183676;23;20364;-80
2022/09/09 07:26:22;;;;;;;3.08;0.60;;;;;;;;;;6206827;23;20009;-79
2022/09/09 07:28:49;;;;;;;1.98;0.70;;;;;;;;;;6203117;23;20523;-80
2022/09/09 07:31:21;;;;;;;0.77;0.50;;;51.50;24.20;;;;;;6207756;23;20013;-79
2022/09/09 07:33:48;;;;;;;0.95;0.52;;;;;;;;;;6206509;23;20008;-79
2022/09/09 07:36:21;;;;;;;2.55;0.52;;;51.50;24.70;;;;;;6207813;23;20005;-80
2022/09/09 07:38:52;;;;;;;1.27;0.50;;;52.00;24.40;;;;;;6203161;23;20009;-80
2022/09/09 07:41:32;;;;;;;2.88;0.80;;;53.20;24.30;;;;;;6207898;23;20410;-80
2022/09/09 07:43:58;;;;;;;1.60;0.88;;;;;;;;;;6207504;23;20020;-79
2022/09/09 07:46:26;;;;;;;2.83;0.80;;;55.10;23.70;;;;;;6207992;23;20004;-76
2022/09/09 07:48:56;;;;;;;2.33;0.95;;;53.30;23.20;;;;;;6202842;23;20448;-76
2022/09/09 07:51:22;;;;;;;2.70;0.70;;;;;;;;;;6176827;23;20005;-78
2022/09/09 07:53:52;;;;;;;3.28;0.77;;;53.60;23.30;;;;;;6206785;23;20008;-84
2022/09/09 07:56:18;;;;;;;1.95;0.73;;;53.60;27.60;;;;;;6208342;23;20192;-87
2022/09/09 07:58:47;;;;;;;1.75;0.80;;;52.70;23.10;;;;;;6204431;23;20062;-87
2022/09/09 08:01:18;;;;;;;1.58;0.82;;;52.60;23.00;;;;;;6208926;23;20066;-88
2022/09/09 08:03:59;;;;;;;2.40;0.70;;;51.20;23.90;;;;;;6208032;23;20087;-87
2022/09/09 08:06:26;;;;;;;1.10;1.00;;;51.70;23.20;;;;;;6207860;23;20346;-85
2022/09/09 08:08:52;;;;;;;2.60;1.00;;;52.10;23.20;;;;;;6204610;23;20008;-84
2022/09/09 08:11:19;;;;;;;0.70;0.70;;;54.10;23.00;;;;;;6181513;23;20001;-85
2022/09/09 08:13:45;;;;;;;2.70;1.38;;;54.40;24.60;;;;;;6208010;23;20060;-81
2022/09/09 08:16:17;;;;;;;2.95;0.93;;;55.80;26.50;;;;;;6207773;23;20093;-83
2022/09/09 08:18:44;;;;;;;1.65;1.13;;;52.90;23.30;;;;;;6204074;23;20088;-84
2022/09/09 08:21:13;;;;;;;2.47;0.90;;;;;;;;;;6208777;23;20447;-85
2022/09/09 08:23:41;;;;;;;1.60;1.40;;;54.40;22.80;;;;;;6206464;23;20028;-85
2022/09/09 08:26:11;;;;;;;4.53;1.90;;;56.70;24.10;;;;;;6207861;23;20036;-84
2022/09/09 08:28:37;;;;;;;3.60;2.05;;;;;;;;;;6203923;23;20009;-84
2022/09/09 08:31:27;;;;;;;1.60;1.50;;;56.80;25.30;;;;;;6209560;23;20051;-84
2022/09/09 08:33:53;;;;;;;1.98;1.50;;;;;;;;;;6192406;23;20065;-86
2022/09/09 08:36:21;;;;;;;1.50;1.40;;;55.70;25.60;;;;;;6206737;23;20071;-85
2022/09/09 08:38:54;;;;;;;1.52;1.42;;;55.50;22.90;;;;;;6206517;23;20028;-84
2022/09/09 08:42:00;;;;;;;1.65;1.45;;;54.00;21.60;;;;;;6209977;23;20016;-85
2022/09/09 08:44:45;;;;;;;1.30;1.20;;;54.20;21.80;;;;;;6181733;23;20103;-85
2022/09/09 08:47:30;;;;;;;1.17;1.17;;;54.40;22.00;;;;;;6209629;23;20067;-85
2022/09/09 08:50:29;;;;;;;1.38;1.27;;;55.40;21.90;;;;;;6207139;23;20368;-84
2022/09/09 08:53:08;;;;;;;2.00;1.48;;;54.50;24.30;;;;;;6210206;23;20107;-85
2022/09/09 08:55:52;;;;;;;1.40;1.40;;;54.90;22.30;;;;;;6209476;23;20000;-85
2022/09/09 08:58:29;;;;;;;1.08;0.32;;;49.00;22.00;;;;;;6207591;23;20016;-85
2022/09/09 09:01:09;;;;;;;3.03;0.75;;;44.70;30.60;;;;;;6207821;23;20070;-84
2022/09/09 09:04:08;;;;;;;0.77;0.10;;;42.20;25.10;;;;;;6208984;23;20439;-85
2022/09/09 09:06:44;;;;;;;0.30;0.30;;;38.90;25.90;;;;;;6207684;23;20198;-83
2022/09/09 09:09:20;;;;;;;1.38;0.10;;;38.70;25.20;;;;;;6207274;23;20012;-85
2022/09/09 09:11:48;;;;;;;1.85;0.30;;;40.80;26.00;;;;;;6209342;23;20001;-84
2022/09/09 09:14:24;;;;;;;0.85;0.30;;;42.30;26.00;;;;;;6209904;23;20001;-82
2022/09/09 09:17:00;;;;;;;0.55;0.40;;;48.30;23.50;;;;;;6182927;23;20067;-81
2022/09/09 09:19:28;;;;;;;0.95;0.32;;;49.60;23.10;;;;;;6206249;23;20344;-81
2022/09/09 09:22:03;;;;;;;5.72;0.47;;;51.50;26.10;;;;;;6210747;23;20020;-82
2022/09/09 09:24:53;;;;;;;0.47;0.40;;;50.50;22.50;;;;;;6209384;23;20447;-81
2022/09/09 09:27:45;;;;;;;0.75;0.75;;;53.70;25.60;;;;;;6208961;23;20008;-88
2022/09/09 09:30:20;;;;;;;0.32;0.10;;;51.70;25.30;;;;;;6196704;23;20062;-89
2022/09/09 09:33:00;;;;;;;0.50;0.20;;;46.50;22.30;;;;;;6209363;23;20007;-85
2022/09/09 09:35:26;;;;;;;2.28;0.10;;;;;;;;;;6183587;23;20455;-82
2022/09/09 09:37:52;;;;;;;3.67;0.10;;;;;;;;;;6209489;23;20489;-84
2022/09/09 09:40:21;;;;;;;0.38;0.00;;;35.10;30.00;;;;;;6207503;23;20143;-80
2022/09/09 09:42:56;;;;;;;2.13;0.50;;;38.70;26.90;;;;;;6208198;23;20017;-81
2022/09/09 09:45:54;;;;;;;1.60;0.30;;;43.80;24.50;;;;;;6208722;23;20684;-84
2022/09/09 09:48:20;;;;;;;0.45;0.32;;;;;;;;;;6084946;23;20165;-86
2022/09/09 09:50:57;;;;;;;0.43;0.32;;;45.60;23.20;;;;;;6087255;23;20841;-86
2022/09/09 09:53:27;;;;;;;1.33;0.50;;;43.20;29.90;;;;;;6087155;23;20006;-81
2022/09/09 09:56:01;;;;;;;1.05;0.10;;;41.50;26.70;;;;;;6088587;23;20010;-80
2022/09/09 09:58:33;;;;;;;0.93;0.10;;;37.30;25.90;;;;;;6083719;23;20006;-84
2022/09/09 10:00:59;;;;;;;1.02;0.08;;;;;;;;;;6088271;23;20098;-83
2022/09/09 10:03:28;;;;;;;2.10;0.45;;;38.30;33.50;;;;;;6086950;23;20006;-84
2022/09/09 10:05:56;;;;;;;0.45;0.20;;;;;;;;;;6088240;23;20402;-85
2022/09/09 10:08:22;;;;;;;0.68;0.50;;;42.70;24.50;;;;;;6085083;23;20758;-85
2022/09/09 10:11:07;;;;;;;2.47;0.45;;;43.80;28.20;;;;;;6087209;23;20038;-84
2022/09/09 10:14:17;;;;;;;1.13;0.33;;;45.50;23.60;;;;;;6088405;23;20010;-83
2022/09/09 10:16:48;;;;;;;0.68;0.35;;;47.10;27.20;;;;;;6088566;23;20265;-84
2022/09/09 10:19:29;;;;;;;0.82;0.30;;;48.60;22.70;;;;;;6083312;23;20010;-83
2022/09/09 10:21:55;;;;;;;0.75;0.17;;;;;;;;;;6089047;23;20093;-84
2022/09/09 10:24:22;;;;;;;1.33;0.40;;;46.80;26.40;;;;;;6169820;23;20023;-82
2022/09/09 10:27:03;;;;;;;0.85;0.30;;;47.30;26.10;;;;;;6210146;23;20406;-81
2022/09/09 10:29:43;;;;;;;0.32;0.00;;;45.60;22.70;;;;;;6204721;23;20050;-81
2022/09/09 10:32:09;;;;;;;0.08;0.00;;;;;;;;;;6210398;23;20411;-81
2022/09/09 10:34:57;;;;;;;1.50;0.10;;;40.10;23.60;;;;;;6208565;23;20011;-81
2022/09/09 10:37:47;;;;;;;1.05;0.25;;;36.40;25.20;;;;;;6209599;23;20007;-81
2022/09/09 10:40:24;;;;;;;0.20;0.00;;;33.70;26.60;;;;;;6204172;23;20004;-80
2022/09/09 10:42:50;;;;;;;0.00;0.00;;;;;;;;;;6209629;23;20341;-81
2022/09/09 10:45:18;;;;;;;0.80;0.05;;;34.90;35.20;;;;;;6208494;23;20009;-82
2022/09/09 10:47:50;;;;;;;0.63;0.32;;;36.40;26.30;;;;;;6183307;23;20008;-79
2022/09/09 10:50:25;;;;;;;0.60;0.20;;;38.00;27.60;;;;;;6205295;23;20011;-79
2022/09/09 10:53:06;;;;;;;1.33;0.30;;;40.10;25.30;;;;;;6209269;23;20012;-81
2022/09/09 10:55:45;;;;;;;0.90;0.08;;;41.80;23.40;;;;;;6209362;23;20176;-83
2022/09/09 10:58:19;;;;;;;1.00;0.10;;;37.80;24.50;;;;;;6208136;23;20004;-81
2022/09/09 11:00:54;;;;;;;1.70;0.10;;;35.80;25.60;;;;;;6205956;23;20000;-84
2022/09/09 11:03:29;;;;;;;1.42;0.10;;;34.70;26.40;;;;;;6209803;23;20079;-82
2022/09/09 11:06:06;;;;;;;2.90;0.20;;;34.20;26.90;;;;;;6208867;23;20000;-85
2022/09/09 11:08:35;;;;;;;0.70;0.10;;;33.90;27.20;;;;;;6205712;23;20009;-88
2022/09/09 11:11:29;;;;;;;1.15;0.28;;;35.00;34.40;;;;;;6210119;23;20363;-85
2022/09/09 11:14:05;;;;;;;1.27;0.10;;;35.20;26.50;;;;;;6209138;23;20005;-83
2022/09/09 11:16:31;;;;;;;;;;;35.20;27.10;;;;;;6208792;23;20494;-80
2022/09/09 11:19:12;;;;;;;0.45;0.17;;;40.70;24.80;;;;;;6205343;23;19982;-81
2022/09/09 11:21:43;;;;;;;1.02;0.20;;;42.20;24.10;;;;;;6180770;23;20055;-81
2022/09/09 11:24:22;;;;;;;0.65;0.28;;;43.50;27.20;;;;;;6209701;23;20005;-81
2022/09/09 11:26:58;;;;;;;0.55;0.00;;;40.90;24.00;;;;;;6207866;23;20001;-82
2022/09/09 11:30:01;;;;;;;1.05;0.10;;;38.00;25.10;;;;;;6201923;23;20028;-81
2022/09/09 11:33:05;;;;;;;0.40;0.08;;;35.30;26.70;;;;;;6208937;23;20071;-81
2022/09/09 11:35:38;;;;;;;0.55;0.10;;;33.30;28.10;;;;;;6207764;23;20000;-80
2022/09/09 11:38:48;;;;;;;0.77;0.30;;;32.00;29.20;;;;;;6207250;23;20340;-77
2022/09/09 11:41:15;;;;;;;2.05;0.40;;;30.90;36.50;;;;;;6202481;23;20020;-81
2022/09/09 11:43:47;;;;;;;2.35;0.30;;;31.00;41.40;;;;;;6207837;23;20453;-81
2022/09/09 11:46:17;;;;;;;0.00;0.00;;;31.30;35.10;;;;;;6208093;23;20084;-81
2022/09/09 11:48:48;;;;;;;1.75;0.20;;;31.20;32.80;;;;;;6203045;23;20001;-81
2022/09/09 11:51:35;;;;;;;3.15;0.28;;;30.40;30.80;;;;;;6205904;23;20036;-81
2022/09/09 11:54:22;;;;;;;0.50;0.22;;;31.20;41.80;;;;;;6208185;23;20001;-81
2022/09/09 11:56:48;;;;;;;2.85;0.20;;;31.60;31.90;;;;;;6208061;23;20015;-78
2022/09/09 11:59:33;;;;;;;0.63;0.40;;;31.30;30.80;;;;;;6203628;23;20000;-78
2022/09/09 12:01:59;;;;;;;1.10;0.20;;;;;;;;;;6208245;23;20012;-78
2022/09/09 12:04:25;;;;;;;1.08;0.30;;;;;;;;;;6208128;23;20054;-83
2022/09/09 12:07:02;;;;;;;0.30;0.20;;;30.20;42.80;;;;;;6208900;23;20084;-78
2022/09/09 12:09:37;;;;;;;0.50;0.32;;;29.40;32.10;;;;;;6204260;23;20005;-88
2022/09/09 12:12:12;;;;;;;1.02;0.20;;;29.00;44.90;;;;;;6210001;23;20009;-82
2022/09/09 12:14:40;;;;;;;2.25;0.63;;;29.30;33.20;;;;;;6209713;23;20005;-78
2022/09/09 12:17:15;;;;;;;0.30;0.20;;;29.70;42.90;;;;;;6210272;23;20012;-81
2022/09/09 12:19:41;;;;;;;1.55;0.20;;;29.60;44.90;;;;;;6206762;23;20014;-81
2022/09/09 12:22:36;;;;;;;1.25;0.22;;;29.70;32.70;;;;;;6210684;23;20095;-81
2022/09/09 12:25:19;;;;;;;1.38;0.28;;;29.40;44.70;;;;;;6199824;23;20004;-81
2022/09/09 12:28:04;;;;;;;1.25;0.40;;;29.40;43.80;;;;;;6211002;23;20036;-78
2022/09/09 12:30:40;;;;;;;3.05;0.30;;;29.60;33.10;;;;;;6206897;23;20020;-81
2022/09/09 12:33:15;;;;;;;0.10;0.10;;;29.70;33.10;;;;;;6208972;23;20007;-82
2022/09/09 12:35:43;;;;;;;2.63;0.30;;;29.20;33.60;;;;;;6176856;23;20009;-77
2022/09/09 12:38:19;;;;;;;2.65;0.30;;;30.10;44.70;;;;;;6180237;23;19997;-79
2022/09/09 12:40:55;;;;;;;1.67;0.50;;;30.30;33.00;;;;;;6178620;23;20005;-80
2022/09/09 12:43:23;;;;;;;4.45;0.38;;;30.60;35.10;;;;;;6179167;23;20005;-81
2022/09/09 12:45:56;;;;;;;2.72;0.20;;;31.00;31.60;;;;;;6179985;23;20005;-80
2022/09/09 12:48:55;;;;;;;0.15;0.10;;;31.30;31.70;;;;;;6178675;23;20443;-78
2022/09/09 12:51:30;;;;;;;1.33;0.20;;;31.40;31.40;;;;;;6175030;23;20084;-82
2022/09/09 12:53:56;;;;;;;2.50;0.90;;;31.40;31.20;;;;;;6179770;23;20160;-80
2022/09/09 12:56:28;;;;;;;0.88;0.20;;;31.10;34.20;;;;;;6180149;23;20001;-80
2022/09/09 12:58:56;;;;;;;0.15;0.10;;;31.20;31.10;;;;;;6176028;23;20411;-80
2022/09/09 13:01:28;;;;;;;0.43;0.20;;;31.00;31.50;;;;;;6179809;23;20009;-80
2022/09/09 13:03:54;;;;;;;0.47;0.20;;;30.70;33.30;;;;;;6180126;23;20016;-79
2022/09/09 13:06:28;;;;;;;0.63;0.20;;;30.60;43.40;;;;;;6179569;23;20001;-77
2022/09/09 13:08:55;;;;;;;5.05;0.30;;;30.20;31.90;;;;;;6176066;23;20071;-79
2022/09/09 13:11:28;;;;;;;0.70;0.15;;;30.30;32.20;;;;;;6179788;23;20016;-86
2022/09/09 13:13:56;;;;;;;0.60;0.20;;;29.90;32.50;;;;;;6180147;23;20404;-84
2022/09/09 13:16:31;;;;;;;7.18;0.40;;;29.70;44.70;;;;;;6179880;23;20021;-86
2022/09/09 13:19:01;;;;;;;0.38;0.22;;;29.70;33.10;;;;;;6176564;23;20345;-87
2022/09/09 13:21:38;;;;;;;2.33;0.38;;;30.10;33.60;;;;;;6178900;23;20044;-87
2022/09/09 13:24:07;;;;;;;0.40;0.30;;;29.70;40.00;;;;;;6179396;23;20012;-86
2022/09/09 13:26:34;;;;;;;1.50;0.35;;;29.20;45.70;;;;;;6180494;23;20792;-85
2022/09/09 13:29:20;;;;;;;0.47;0.20;;;29.10;33.80;;;;;;6175591;23;20005;-86
2022/09/09 13:31:46;;;;;;;0.63;0.28;;;;;;;;;;6179955;23;20028;-83
2022/09/09 13:34:14;;;;;;;0.63;0.47;;;28.90;34.10;;;;;;6152951;23;20347;-80
2022/09/09 13:36:41;;;;;;;2.30;0.32;;;28.90;40.30;;;;;;6180000;23;20622;-82
2022/09/09 13:39:17;;;;;;;0.25;0.20;;;29.00;34.60;;;;;;6175126;23;20088;-82
2022/09/09 13:41:44;;;;;;;0.63;0.28;;;29.20;34.10;;;;;;6179509;23;20092;-83
2022/09/09 13:44:28;;;;;;;1.15;0.17;;;30.00;34.80;;;;;;6178529;23;20052;-77
2022/09/09 13:47:06;;;;;;;0.43;0.20;;;28.80;34.60;;;;;;6179926;23;20024;-76